Gulfport Biloxi International Airport
KGPT : rendu visible

Aérodrome :











RETROUVEZ-NOUS SUR...

 
LOGIN :

S'inscrire | Disclaimer

   EN    FR    IT 

 









Légende :    VFR   VFR Marginal   IFR   IFR Intensif   IFR Très Intensif
Visi : 
Plafond : 
>= 8 km
>= 3000ft
5 à 8 km
1000 à 3000 ft
1500m à 5 km
500 à 1000 ft
800 à 1500m
200 à 500 ft
< 800m
< 200 ft
Symboles :   Orages  Brouillard  Fortes neiges  Fortes précipitations  Vent > 20 kt







- Altitude de l'aérodrome : 28 ft
- Code IATA : GPT


KGPT - Gulfport Biloxi International

DERNIER METAR :
  • 240153Z 03006KT 10SM OVC047 24/22 A2994 RMK AO2 LTG DSNT S RAB16E52 SLP138 P0004 T02440217

METARs EXPIRÉS :
  • 240053Z 35005KT 10SM OVC035 26/23 A2993 RMK AO2 LTG DSNT E-S SLP134 T02560228
  • 240038Z 01004KT 10SM OVC031 26/24 A2992 RMK AO2 LTG DSNT E-SW T02560239
  • 240015Z 03004KT 10SM SCT013 OVC027 26/24 A2992 RMK AO2 LTG DSNT SE AND SW T02560239
  • 240002Z 04003KT 10SM BKN013 BKN018 OVC025 26/24 A2992 RMK AO2 LTG DSNT E AND SE T02560239
  • 232353Z VRB03KT 10SM VCTS BKN016 OVC023 26/23 A2992 RMK AO2 LTG DSNT E-S RAE23 TSE06B17E33 SLP129 P0036 60115 T02560233 10322 20244 53015

TAF KGPT
Valide du 24 à 00h jusqu'au 25 à 00h UTC


232334Z 2400/2424 06006KT P6SM VCTS BKN026CB
FM240200 01005KT P6SM BKN050
FM241500 01008KT P6SM SKC
FIR KZHU / Amérique du Nord



MET'MAP, la Météo Aéronautique d'un coup d'oeil ! - Copyright ORBIFLY Décembre 2007 - Disclaimer

ORBIFLY MET'MAP TEAM :

Programmation & Développement : Alexandra Zaïnal
Conception & Développement : Baudouin d'Aumeries
Co-Programmation & Développement : Marc-Olivier Méhu
Soutien technique & logistique : Manuel Goepfert

Contact : metmap@orbifly.com




SOURCES & CREDITS :

   NOAA       Earth
Advisory